sensor_id;sensor_type;location;lat;lon;timestamp;P1;durP1;ratioP1;P2;durP2;ratioP2
49029;SDS011;43337;52.070;4.508;2023-02-04T00:00:59;27.83;;;5.18;;
49029;SDS011;43337;52.070;4.508;2023-02-04T00:03:24;32.33;;;5.72;;
49029;SDS011;43337;52.070;4.508;2023-02-04T00:05:49;35.40;;;4.18;;
49029;SDS011;43337;52.070;4.508;2023-02-04T00:08:15;30.20;;;3.70;;
49029;SDS011;43337;52.070;4.508;2023-02-04T00:10:40;31.77;;;3.60;;
49029;SDS011;43337;52.070;4.508;2023-02-04T00:13:06;32.10;;;4.07;;
49029;SDS011;43337;52.070;4.508;2023-02-04T00:15:31;19.13;;;3.30;;
49029;SDS011;43337;52.070;4.508;2023-02-04T00:17:56;36.20;;;5.45;;
49029;SDS011;43337;52.070;4.508;2023-02-04T00:20:22;30.50;;;3.72;;
49029;SDS011;43337;52.070;4.508;2023-02-04T00:22:48;22.60;;;3.63;;
49029;SDS011;43337;52.070;4.508;2023-02-04T00:25:13;30.73;;;3.72;;
49029;SDS011;43337;52.070;4.508;2023-02-04T00:27:39;32.30;;;4.25;;
49029;SDS011;43337;52.070;4.508;2023-02-04T00:30:04;29.17;;;3.70;;
49029;SDS011;43337;52.070;4.508;2023-02-04T00:32:30;29.42;;;3.60;;
49029;SDS011;43337;52.070;4.508;2023-02-04T00:34:56;32.35;;;4.43;;
49029;SDS011;43337;52.070;4.508;2023-02-04T00:37:21;28.35;;;3.83;;
49029;SDS011;43337;52.070;4.508;2023-02-04T00:39:47;25.75;;;5.70;;
49029;SDS011;43337;52.070;4.508;2023-02-04T00:42:12;20.33;;;3.58;;
49029;SDS011;43337;52.070;4.508;2023-02-04T00:44:38;26.02;;;4.20;;
49029;SDS011;43337;52.070;4.508;2023-02-04T00:47:03;33.17;;;4.68;;
49029;SDS011;43337;52.070;4.508;2023-02-04T00:49:29;30.30;;;4.25;;
49029;SDS011;43337;52.070;4.508;2023-02-04T00:51:54;29.33;;;5.28;;
49029;SDS011;43337;52.070;4.508;2023-02-04T00:54:19;25.15;;;4.75;;
49029;SDS011;43337;52.070;4.508;2023-02-04T00:56:45;16.77;;;4.25;;
49029;SDS011;43337;52.070;4.508;2023-02-04T00:59:10;26.10;;;4.20;;
49029;SDS011;43337;52.070;4.508;2023-02-04T01:01:36;29.77;;;5.93;;
49029;SDS011;43337;52.070;4.508;2023-02-04T01:04:02;28.63;;;4.03;;
49029;SDS011;43337;52.070;4.508;2023-02-04T01:06:27;23.63;;;4.03;;
49029;SDS011;43337;52.070;4.508;2023-02-04T01:08:52;33.83;;;5.30;;
49029;SDS011;43337;52.070;4.508;2023-02-04T01:11:18;24.85;;;3.83;;
49029;SDS011;43337;52.070;4.508;2023-02-04T01:13:43;27.25;;;5.18;;
49029;SDS011;43337;52.070;4.508;2023-02-04T01:16:09;32.75;;;5.45;;
49029;SDS011;43337;52.070;4.508;2023-02-04T01:18:35;25.58;;;4.35;;
49029;SDS011;43337;52.070;4.508;2023-02-04T01:21:00;31.75;;;4.20;;
49029;SDS011;43337;52.070;4.508;2023-02-04T01:23:26;33.47;;;4.78;;
49029;SDS011;43337;52.070;4.508;2023-02-04T01:25:51;28.20;;;4.85;;
49029;SDS011;43337;52.070;4.508;2023-02-04T01:28:16;24.73;;;4.05;;
49029;SDS011;43337;52.070;4.508;2023-02-04T01:30:42;30.45;;;5.20;;
49029;SDS011;43337;52.070;4.508;2023-02-04T01:33:07;30.05;;;4.55;;
49029;SDS011;43337;52.070;4.508;2023-02-04T01:35:33;34.13;;;3.88;;
49029;SDS011;43337;52.070;4.508;2023-02-04T01:37:58;36.78;;;4.57;;
49029;SDS011;43337;52.070;4.508;2023-02-04T01:40:24;28.13;;;4.63;;
49029;SDS011;43337;52.070;4.508;2023-02-04T01:42:49;25.13;;;4.43;;
49029;SDS011;43337;52.070;4.508;2023-02-04T01:45:15;23.45;;;4.38;;
49029;SDS011;43337;52.070;4.508;2023-02-04T01:47:41;27.08;;;4.00;;
49029;SDS011;43337;52.070;4.508;2023-02-04T01:50:09;28.67;;;4.05;;
49029;SDS011;43337;52.070;4.508;2023-02-04T01:52:36;21.80;;;3.22;;
49029;SDS011;43337;52.070;4.508;2023-02-04T01:55:03;26.15;;;3.60;;
49029;SDS011;43337;52.070;4.508;2023-02-04T01:57:36;32.53;;;5.18;;
49029;SDS011;43337;52.070;4.508;2023-02-04T02:00:02;26.25;;;4.00;;
49029;SDS011;43337;52.070;4.508;2023-02-04T02:02:38;29.88;;;4.93;;
49029;SDS011;43337;52.070;4.508;2023-02-04T02:05:05;23.17;;;3.53;;
49029;SDS011;43337;52.070;4.508;2023-02-04T02:07:36;27.75;;;4.65;;
49029;SDS011;43337;52.070;4.508;2023-02-04T02:10:05;27.35;;;3.65;;
49029;SDS011;43337;52.070;4.508;2023-02-04T02:12:32;29.38;;;3.58;;
49029;SDS011;43337;52.070;4.508;2023-02-04T02:14:58;26.00;;;4.30;;
49029;SDS011;43337;52.070;4.508;2023-02-04T02:17:24;24.05;;;2.42;;
49029;SDS011;43337;52.070;4.508;2023-02-04T02:19:49;24.33;;;3.53;;
49029;SDS011;43337;52.070;4.508;2023-02-04T02:25:11;23.48;;;3.05;;
49029;SDS011;43337;52.070;4.508;2023-02-04T02:27:39;24.73;;;2.95;;
49029;SDS011;43337;52.070;4.508;2023-02-04T02:30:05;30.73;;;3.50;;
49029;SDS011;43337;52.070;4.508;2023-02-04T02:32:33;21.45;;;2.65;;
49029;SDS011;43337;52.070;4.508;2023-02-04T02:34:59;24.75;;;3.25;;
49029;SDS011;43337;52.070;4.508;2023-02-04T02:37:25;26.17;;;3.08;;
49029;SDS011;43337;52.070;4.508;2023-02-04T02:39:50;24.88;;;3.63;;
49029;SDS011;43337;52.070;4.508;2023-02-04T02:42:16;20.77;;;3.50;;
49029;SDS011;43337;52.070;4.508;2023-02-04T02:44:43;25.27;;;3.42;;
49029;SDS011;43337;52.070;4.508;2023-02-04T02:47:11;24.05;;;3.42;;
49029;SDS011;43337;52.070;4.508;2023-02-04T02:49:38;28.15;;;3.67;;
49029;SDS011;43337;52.070;4.508;2023-02-04T02:52:05;23.08;;;3.75;;
49029;SDS011;43337;52.070;4.508;2023-02-04T02:54:31;18.25;;;2.45;;
49029;SDS011;43337;52.070;4.508;2023-02-04T02:56:58;24.55;;;3.03;;
49029;SDS011;43337;52.070;4.508;2023-02-04T02:59:24;23.33;;;3.75;;
49029;SDS011;43337;52.070;4.508;2023-02-04T03:01:51;27.40;;;4.05;;
49029;SDS011;43337;52.070;4.508;2023-02-04T03:04:21;26.30;;;3.17;;
49029;SDS011;43337;52.070;4.508;2023-02-04T03:06:48;27.23;;;3.20;;
49029;SDS011;43337;52.070;4.508;2023-02-04T03:09:14;20.23;;;3.55;;
49029;SDS011;43337;52.070;4.508;2023-02-04T03:11:40;30.35;;;4.10;;
49029;SDS011;43337;52.070;4.508;2023-02-04T03:14:05;36.90;;;3.65;;
49029;SDS011;43337;52.070;4.508;2023-02-04T03:16:31;23.80;;;2.95;;
49029;SDS011;43337;52.070;4.508;2023-02-04T03:18:59;25.05;;;4.18;;
49029;SDS011;43337;52.070;4.508;2023-02-04T03:21:25;26.05;;;2.95;;
49029;SDS011;43337;52.070;4.508;2023-02-04T03:23:51;28.27;;;4.88;;
49029;SDS011;43337;52.070;4.508;2023-02-04T03:26:20;26.77;;;3.78;;
49029;SDS011;43337;52.070;4.508;2023-02-04T03:28:45;26.90;;;3.67;;
49029;SDS011;43337;52.070;4.508;2023-02-04T03:31:11;20.35;;;3.05;;
49029;SDS011;43337;52.070;4.508;2023-02-04T03:33:36;26.85;;;3.60;;
49029;SDS011;43337;52.070;4.508;2023-02-04T03:36:01;23.50;;;3.83;;
49029;SDS011;43337;52.070;4.508;2023-02-04T03:38:27;33.78;;;4.10;;
49029;SDS011;43337;52.070;4.508;2023-02-04T03:40:53;26.02;;;2.90;;
49029;SDS011;43337;52.070;4.508;2023-02-04T03:43:18;25.45;;;3.20;;
49029;SDS011;43337;52.070;4.508;2023-02-04T03:45:43;21.67;;;2.92;;
49029;SDS011;43337;52.070;4.508;2023-02-04T03:48:09;27.02;;;3.15;;
49029;SDS011;43337;52.070;4.508;2023-02-04T03:50:34;28.65;;;3.85;;
49029;SDS011;43337;52.070;4.508;2023-02-04T03:52:59;25.60;;;3.28;;
49029;SDS011;43337;52.070;4.508;2023-02-04T03:55:25;22.73;;;4.43;;
49029;SDS011;43337;52.070;4.508;2023-02-04T03:57:51;31.05;;;4.00;;
49029;SDS011;43337;52.070;4.508;2023-02-04T04:00:17;30.30;;;4.60;;
49029;SDS011;43337;52.070;4.508;2023-02-04T04:02:42;21.73;;;3.58;;
49029;SDS011;43337;52.070;4.508;2023-02-04T04:05:08;22.85;;;3.30;;
49029;SDS011;43337;52.070;4.508;2023-02-04T04:07:34;24.33;;;4.03;;
49029;SDS011;43337;52.070;4.508;2023-02-04T04:09:59;22.33;;;4.03;;
49029;SDS011;43337;52.070;4.508;2023-02-04T04:12:25;35.33;;;4.88;;
49029;SDS011;43337;52.070;4.508;2023-02-04T04:14:50;24.13;;;3.50;;
49029;SDS011;43337;52.070;4.508;2023-02-04T04:17:15;20.17;;;3.33;;
49029;SDS011;43337;52.070;4.508;2023-02-04T04:19:41;28.73;;;3.72;;
49029;SDS011;43337;52.070;4.508;2023-02-04T04:22:08;25.58;;;5.40;;
49029;SDS011;43337;52.070;4.508;2023-02-04T04:24:34;28.10;;;3.55;;
49029;SDS011;43337;52.070;4.508;2023-02-04T04:26:59;28.08;;;3.35;;
49029;SDS011;43337;52.070;4.508;2023-02-04T04:29:24;18.92;;;3.25;;
49029;SDS011;43337;52.070;4.508;2023-02-04T04:31:50;19.75;;;3.25;;
49029;SDS011;43337;52.070;4.508;2023-02-04T04:34:15;29.98;;;4.53;;
49029;SDS011;43337;52.070;4.508;2023-02-04T04:36:40;32.47;;;4.50;;
49029;SDS011;43337;52.070;4.508;2023-02-04T04:39:06;23.25;;;3.08;;
49029;SDS011;43337;52.070;4.508;2023-02-04T04:41:31;21.58;;;2.97;;
49029;SDS011;43337;52.070;4.508;2023-02-04T04:43:56;35.17;;;4.63;;
49029;SDS011;43337;52.070;4.508;2023-02-04T04:46:22;23.65;;;4.57;;
49029;SDS011;43337;52.070;4.508;2023-02-04T04:48:47;25.17;;;3.58;;
49029;SDS011;43337;52.070;4.508;2023-02-04T04:51:13;22.35;;;3.35;;
49029;SDS011;43337;52.070;4.508;2023-02-04T04:53:38;24.60;;;3.90;;
49029;SDS011;43337;52.070;4.508;2023-02-04T04:56:03;31.88;;;5.45;;
49029;SDS011;43337;52.070;4.508;2023-02-04T04:58:29;30.25;;;4.93;;
49029;SDS011;43337;52.070;4.508;2023-02-04T05:00:54;29.17;;;5.25;;
49029;SDS011;43337;52.070;4.508;2023-02-04T05:03:20;35.67;;;4.40;;
49029;SDS011;43337;52.070;4.508;2023-02-04T05:05:45;17.92;;;3.13;;
49029;SDS011;43337;52.070;4.508;2023-02-04T05:08:10;37.90;;;4.70;;
49029;SDS011;43337;52.070;4.508;2023-02-04T05:10:38;40.80;;;5.43;;
49029;SDS011;43337;52.070;4.508;2023-02-04T05:13:04;41.58;;;4.03;;
49029;SDS011;43337;52.070;4.508;2023-02-04T05:15:30;29.75;;;5.15;;
49029;SDS011;43337;52.070;4.508;2023-02-04T05:17:55;41.50;;;5.28;;
49029;SDS011;43337;52.070;4.508;2023-02-04T05:20:22;38.88;;;4.43;;
49029;SDS011;43337;52.070;4.508;2023-02-04T05:22:47;30.65;;;5.53;;
49029;SDS011;43337;52.070;4.508;2023-02-04T05:25:13;30.13;;;3.50;;
49029;SDS011;43337;52.070;4.508;2023-02-04T05:27:40;34.30;;;4.93;;
49029;SDS011;43337;52.070;4.508;2023-02-04T05:30:06;28.92;;;4.50;;
49029;SDS011;43337;52.070;4.508;2023-02-04T05:32:33;32.13;;;4.63;;
49029;SDS011;43337;52.070;4.508;2023-02-04T05:34:59;29.52;;;4.68;;
49029;SDS011;43337;52.070;4.508;2023-02-04T05:37:24;30.65;;;3.85;;
49029;SDS011;43337;52.070;4.508;2023-02-04T05:39:50;31.45;;;4.38;;
49029;SDS011;43337;52.070;4.508;2023-02-04T05:42:21;35.55;;;3.95;;
49029;SDS011;43337;52.070;4.508;2023-02-04T05:44:46;30.92;;;4.00;;
49029;SDS011;43337;52.070;4.508;2023-02-04T05:47:12;35.53;;;4.38;;
49029;SDS011;43337;52.070;4.508;2023-02-04T05:49:37;40.95;;;5.38;;
49029;SDS011;43337;52.070;4.508;2023-02-04T05:52:03;24.10;;;3.67;;
49029;SDS011;43337;52.070;4.508;2023-02-04T05:54:28;29.90;;;4.10;;
49029;SDS011;43337;52.070;4.508;2023-02-04T05:56:54;30.02;;;5.57;;
49029;SDS011;43337;52.070;4.508;2023-02-04T05:59:19;28.92;;;4.85;;
49029;SDS011;43337;52.070;4.508;2023-02-04T06:01:44;37.35;;;5.88;;
49029;SDS011;43337;52.070;4.508;2023-02-04T06:04:10;43.17;;;6.78;;
49029;SDS011;43337;52.070;4.508;2023-02-04T06:06:35;37.10;;;5.05;;
49029;SDS011;43337;52.070;4.508;2023-02-04T06:09:01;30.15;;;4.10;;
49029;SDS011;43337;52.070;4.508;2023-02-04T06:11:26;30.15;;;4.65;;
49029;SDS011;43337;52.070;4.508;2023-02-04T06:13:52;38.00;;;4.55;;
49029;SDS011;43337;52.070;4.508;2023-02-04T06:16:17;36.33;;;5.32;;
49029;SDS011;43337;52.070;4.508;2023-02-04T06:18:43;29.70;;;3.97;;
49029;SDS011;43337;52.070;4.508;2023-02-04T06:21:08;26.58;;;5.45;;
49029;SDS011;43337;52.070;4.508;2023-02-04T06:23:34;24.80;;;4.60;;
49029;SDS011;43337;52.070;4.508;2023-02-04T06:26:02;31.58;;;4.32;;
49029;SDS011;43337;52.070;4.508;2023-02-04T06:28:28;27.65;;;4.00;;
49029;SDS011;43337;52.070;4.508;2023-02-04T06:30:53;25.58;;;3.67;;
49029;SDS011;43337;52.070;4.508;2023-02-04T06:33:18;37.88;;;5.75;;
49029;SDS011;43337;52.070;4.508;2023-02-04T06:35:45;21.30;;;4.05;;
49029;SDS011;43337;52.070;4.508;2023-02-04T06:38:11;33.90;;;5.20;;
49029;SDS011;43337;52.070;4.508;2023-02-04T06:40:36;23.98;;;3.78;;
49029;SDS011;43337;52.070;4.508;2023-02-04T06:43:02;34.30;;;4.80;;
49029;SDS011;43337;52.070;4.508;2023-02-04T06:45:27;39.10;;;5.80;;
49029;SDS011;43337;52.070;4.508;2023-02-04T06:47:53;34.63;;;6.47;;
49029;SDS011;43337;52.070;4.508;2023-02-04T06:50:18;27.80;;;5.45;;
49029;SDS011;43337;52.070;4.508;2023-02-04T06:52:46;37.25;;;4.75;;
49029;SDS011;43337;52.070;4.508;2023-02-04T06:55:12;33.92;;;5.30;;
49029;SDS011;43337;52.070;4.508;2023-02-04T06:57:38;34.13;;;4.88;;
49029;SDS011;43337;52.070;4.508;2023-02-04T07:00:05;30.23;;;4.60;;
49029;SDS011;43337;52.070;4.508;2023-02-04T07:02:33;33.53;;;4.80;;
49029;SDS011;43337;52.070;4.508;2023-02-04T07:04:58;26.02;;;4.65;;
49029;SDS011;43337;52.070;4.508;2023-02-04T07:07:25;30.13;;;4.57;;
49029;SDS011;43337;52.070;4.508;2023-02-04T07:09:50;35.72;;;5.43;;
49029;SDS011;43337;52.070;4.508;2023-02-04T07:12:16;24.55;;;5.25;;
49029;SDS011;43337;52.070;4.508;2023-02-04T07:14:42;26.90;;;4.20;;
49029;SDS011;43337;52.070;4.508;2023-02-04T07:17:07;30.20;;;4.97;;
49029;SDS011;43337;52.070;4.508;2023-02-04T07:19:33;28.33;;;4.78;;
49029;SDS011;43337;52.070;4.508;2023-02-04T07:22:00;33.30;;;4.78;;
49029;SDS011;43337;52.070;4.508;2023-02-04T07:24:25;36.47;;;6.07;;
49029;SDS011;43337;52.070;4.508;2023-02-04T07:26:51;37.22;;;8.18;;
49029;SDS011;43337;52.070;4.508;2023-02-04T07:29:16;37.08;;;7.32;;
49029;SDS011;43337;52.070;4.508;2023-02-04T07:31:43;38.67;;;5.72;;
49029;SDS011;43337;52.070;4.508;2023-02-04T07:34:10;34.50;;;6.57;;
49029;SDS011;43337;52.070;4.508;2023-02-04T07:36:37;44.55;;;6.43;;
49029;SDS011;43337;52.070;4.508;2023-02-04T07:39:02;46.25;;;6.93;;
49029;SDS011;43337;52.070;4.508;2023-02-04T07:41:28;39.88;;;6.05;;
49029;SDS011;43337;52.070;4.508;2023-02-04T07:43:53;32.38;;;7.40;;
49029;SDS011;43337;52.070;4.508;2023-02-04T07:46:19;40.80;;;7.10;;
49029;SDS011;43337;52.070;4.508;2023-02-04T07:48:44;45.28;;;6.53;;
49029;SDS011;43337;52.070;4.508;2023-02-04T07:51:09;32.15;;;6.40;;
49029;SDS011;43337;52.070;4.508;2023-02-04T07:53:35;41.50;;;6.70;;
49029;SDS011;43337;52.070;4.508;2023-02-04T07:56:00;31.73;;;6.72;;
49029;SDS011;43337;52.070;4.508;2023-02-04T07:58:26;42.13;;;5.82;;
49029;SDS011;43337;52.070;4.508;2023-02-04T08:00:51;31.40;;;6.20;;
49029;SDS011;43337;52.070;4.508;2023-02-04T08:03:16;37.55;;;7.25;;
49029;SDS011;43337;52.070;4.508;2023-02-04T08:05:42;34.00;;;6.43;;
49029;SDS011;43337;52.070;4.508;2023-02-04T08:08:07;37.15;;;6.80;;
49029;SDS011;43337;52.070;4.508;2023-02-04T08:10:32;31.65;;;6.00;;
49029;SDS011;43337;52.070;4.508;2023-02-04T08:12:58;38.88;;;5.57;;
49029;SDS011;43337;52.070;4.508;2023-02-04T08:15:23;37.15;;;7.03;;
49029;SDS011;43337;52.070;4.508;2023-02-04T08:17:48;45.10;;;7.10;;
49029;SDS011;43337;52.070;4.508;2023-02-04T08:20:14;33.63;;;6.13;;
49029;SDS011;43337;52.070;4.508;2023-02-04T08:22:41;30.38;;;7.18;;
49029;SDS011;43337;52.070;4.508;2023-02-04T08:25:06;32.95;;;6.28;;
49029;SDS011;43337;52.070;4.508;2023-02-04T08:27:32;29.27;;;6.57;;
49029;SDS011;43337;52.070;4.508;2023-02-04T08:29:57;50.45;;;7.55;;
49029;SDS011;43337;52.070;4.508;2023-02-04T08:32:22;44.90;;;7.95;;
49029;SDS011;43337;52.070;4.508;2023-02-04T08:34:48;33.70;;;5.60;;
49029;SDS011;43337;52.070;4.508;2023-02-04T08:37:14;31.05;;;6.18;;
49029;SDS011;43337;52.070;4.508;2023-02-04T08:39:39;46.40;;;6.47;;
49029;SDS011;43337;52.070;4.508;2023-02-04T08:42:10;32.20;;;5.25;;
49029;SDS011;43337;52.070;4.508;2023-02-04T08:44:36;42.72;;;5.82;;
49029;SDS011;43337;52.070;4.508;2023-02-04T08:47:01;32.22;;;5.47;;
49029;SDS011;43337;52.070;4.508;2023-02-04T08:49:26;35.33;;;5.60;;
49029;SDS011;43337;52.070;4.508;2023-02-04T08:51:52;29.25;;;6.43;;
49029;SDS011;43337;52.070;4.508;2023-02-04T08:54:17;27.88;;;5.65;;
49029;SDS011;43337;52.070;4.508;2023-02-04T08:56:42;28.25;;;5.22;;
49029;SDS011;43337;52.070;4.508;2023-02-04T08:59:08;28.08;;;5.65;;
49029;SDS011;43337;52.070;4.508;2023-02-04T09:01:33;41.85;;;7.53;;
49029;SDS011;43337;52.070;4.508;2023-02-04T09:03:59;38.53;;;7.45;;
49029;SDS011;43337;52.070;4.508;2023-02-04T09:06:24;45.53;;;7.20;;
49029;SDS011;43337;52.070;4.508;2023-02-04T09:08:49;41.88;;;7.53;;
49029;SDS011;43337;52.070;4.508;2023-02-04T09:11:15;36.88;;;7.40;;
49029;SDS011;43337;52.070;4.508;2023-02-04T09:13:40;36.10;;;8.30;;
49029;SDS011;43337;52.070;4.508;2023-02-04T09:16:05;33.95;;;8.30;;
49029;SDS011;43337;52.070;4.508;2023-02-04T09:18:31;39.88;;;8.63;;
49029;SDS011;43337;52.070;4.508;2023-02-04T09:20:57;38.67;;;7.75;;
49029;SDS011;43337;52.070;4.508;2023-02-04T09:23:22;34.08;;;7.28;;
49029;SDS011;43337;52.070;4.508;2023-02-04T09:25:48;33.25;;;7.57;;
49029;SDS011;43337;52.070;4.508;2023-02-04T09:28:14;35.92;;;6.47;;
49029;SDS011;43337;52.070;4.508;2023-02-04T09:30:41;31.13;;;6.88;;
49029;SDS011;43337;52.070;4.508;2023-02-04T09:33:08;30.05;;;6.57;;
49029;SDS011;43337;52.070;4.508;2023-02-04T09:35:34;35.95;;;6.10;;
49029;SDS011;43337;52.070;4.508;2023-02-04T09:38:00;28.50;;;5.78;;
49029;SDS011;43337;52.070;4.508;2023-02-04T09:40:26;27.45;;;5.72;;
49029;SDS011;43337;52.070;4.508;2023-02-04T09:42:53;34.63;;;6.07;;
49029;SDS011;43337;52.070;4.508;2023-02-04T09:45:26;26.08;;;5.47;;
49029;SDS011;43337;52.070;4.508;2023-02-04T09:47:54;26.25;;;6.70;;
49029;SDS011;43337;52.070;4.508;2023-02-04T09:50:22;28.02;;;6.68;;
49029;SDS011;43337;52.070;4.508;2023-02-04T09:52:50;26.80;;;5.28;;
49029;SDS011;43337;52.070;4.508;2023-02-04T09:55:18;21.13;;;5.40;;
49029;SDS011;43337;52.070;4.508;2023-02-04T09:57:53;27.98;;;6.00;;
49029;SDS011;43337;52.070;4.508;2023-02-04T10:00:20;27.73;;;6.63;;
49029;SDS011;43337;52.070;4.508;2023-02-04T10:02:47;27.30;;;6.32;;
49029;SDS011;43337;52.070;4.508;2023-02-04T10:05:14;22.23;;;5.70;;
49029;SDS011;43337;52.070;4.508;2023-02-04T10:07:41;26.65;;;6.30;;
49029;SDS011;43337;52.070;4.508;2023-02-04T10:10:17;26.88;;;5.90;;
49029;SDS011;43337;52.070;4.508;2023-02-04T10:12:45;30.20;;;6.03;;
49029;SDS011;43337;52.070;4.508;2023-02-04T10:15:14;27.80;;;5.88;;
49029;SDS011;43337;52.070;4.508;2023-02-04T10:17:43;23.75;;;4.63;;
49029;SDS011;43337;52.070;4.508;2023-02-04T10:20:14;20.38;;;4.28;;
49029;SDS011;43337;52.070;4.508;2023-02-04T10:22:40;29.80;;;4.65;;
49029;SDS011;43337;52.070;4.508;2023-02-04T10:25:17;23.35;;;5.65;;
49029;SDS011;43337;52.070;4.508;2023-02-04T10:27:53;22.67;;;4.60;;
49029;SDS011;43337;52.070;4.508;2023-02-04T10:30:24;18.23;;;4.45;;
49029;SDS011;43337;52.070;4.508;2023-02-04T10:32:52;24.83;;;4.22;;
49029;SDS011;43337;52.070;4.508;2023-02-04T10:35:18;22.92;;;4.35;;
49029;SDS011;43337;52.070;4.508;2023-02-04T10:37:45;24.48;;;5.15;;
49029;SDS011;43337;52.070;4.508;2023-02-04T10:40:27;19.42;;;4.70;;
49029;SDS011;43337;52.070;4.508;2023-02-04T10:42:55;24.70;;;4.30;;
49029;SDS011;43337;52.070;4.508;2023-02-04T10:45:24;21.35;;;4.68;;
49029;SDS011;43337;52.070;4.508;2023-02-04T10:47:52;23.55;;;4.93;;
49029;SDS011;43337;52.070;4.508;2023-02-04T10:50:23;21.35;;;4.35;;
49029;SDS011;43337;52.070;4.508;2023-02-04T10:52:51;12.50;;;3.65;;
49029;SDS011;43337;52.070;4.508;2023-02-04T10:55:20;31.45;;;5.68;;
49029;SDS011;43337;52.070;4.508;2023-02-04T10:57:48;29.10;;;5.30;;
49029;SDS011;43337;52.070;4.508;2023-02-04T11:00:16;19.08;;;4.38;;
49029;SDS011;43337;52.070;4.508;2023-02-04T11:02:48;19.98;;;3.95;;
49029;SDS011;43337;52.070;4.508;2023-02-04T11:05:15;16.35;;;3.72;;
49029;SDS011;43337;52.070;4.508;2023-02-04T11:07:43;16.70;;;3.60;;
49029;SDS011;43337;52.070;4.508;2023-02-04T11:10:20;16.50;;;3.80;;
49029;SDS011;43337;52.070;4.508;2023-02-04T11:18:02;20.03;;;5.17;;
49029;SDS011;43337;52.070;4.508;2023-02-04T11:20:32;20.13;;;4.50;;
49029;SDS011;43337;52.070;4.508;2023-02-04T11:23:12;16.67;;;4.70;;
49029;SDS011;43337;52.070;4.508;2023-02-04T11:26:04;16.80;;;2.92;;
49029;SDS011;43337;52.070;4.508;2023-02-04T11:44:47;14.35;;;2.15;;
49029;SDS011;43337;52.070;4.508;2023-02-04T11:47:22;16.02;;;2.50;;
49029;SDS011;43337;52.070;4.508;2023-02-04T11:49:54;10.77;;;1.90;;
49029;SDS011;43337;52.070;4.508;2023-02-04T11:52:22;11.95;;;2.67;;
49029;SDS011;43337;52.070;4.508;2023-02-04T11:54:54;11.40;;;2.10;;
49029;SDS011;43337;52.070;4.508;2023-02-04T11:57:21;10.07;;;2.88;;
49029;SDS011;43337;52.070;4.508;2023-02-04T11:59:47;11.30;;;3.05;;
49029;SDS011;43337;52.070;4.508;2023-02-04T12:02:14;12.75;;;2.08;;
49029;SDS011;43337;52.070;4.508;2023-02-04T12:04:51;10.07;;;2.20;;
49029;SDS011;43337;52.070;4.508;2023-02-04T12:07:23;8.88;;;2.08;;
49029;SDS011;43337;52.070;4.508;2023-02-04T12:09:53;13.43;;;2.27;;
49029;SDS011;43337;52.070;4.508;2023-02-04T12:12:28;16.58;;;2.70;;
49029;SDS011;43337;52.070;4.508;2023-02-04T12:15:00;11.63;;;2.10;;
49029;SDS011;43337;52.070;4.508;2023-02-04T12:17:33;17.52;;;2.47;;
49029;SDS011;43337;52.070;4.508;2023-02-04T12:19:58;7.60;;;1.90;;
49029;SDS011;43337;52.070;4.508;2023-02-04T12:22:23;12.23;;;2.38;;
49029;SDS011;43337;52.070;4.508;2023-02-04T12:24:49;13.85;;;2.92;;
49029;SDS011;43337;52.070;4.508;2023-02-04T12:27:16;17.65;;;2.30;;
49029;SDS011;43337;52.070;4.508;2023-02-04T12:29:41;15.32;;;3.10;;
49029;SDS011;43337;52.070;4.508;2023-02-04T12:32:07;15.25;;;2.47;;
49029;SDS011;43337;52.070;4.508;2023-02-04T12:34:32;18.10;;;4.57;;
49029;SDS011;43337;52.070;4.508;2023-02-04T12:36:58;21.02;;;2.58;;
49029;SDS011;43337;52.070;4.508;2023-02-04T12:39:23;14.63;;;2.63;;
49029;SDS011;43337;52.070;4.508;2023-02-04T12:41:48;14.73;;;2.70;;
49029;SDS011;43337;52.070;4.508;2023-02-04T12:44:14;13.43;;;2.72;;
49029;SDS011;43337;52.070;4.508;2023-02-04T12:46:41;11.00;;;2.35;;
49029;SDS011;43337;52.070;4.508;2023-02-04T12:49:07;13.27;;;2.33;;
49029;SDS011;43337;52.070;4.508;2023-02-04T12:51:32;12.15;;;2.00;;
49029;SDS011;43337;52.070;4.508;2023-02-04T12:53:57;13.98;;;2.40;;
49029;SDS011;43337;52.070;4.508;2023-02-04T12:56:23;19.25;;;3.53;;
49029;SDS011;43337;52.070;4.508;2023-02-04T12:58:48;21.42;;;3.70;;
49029;SDS011;43337;52.070;4.508;2023-02-04T13:01:14;19.15;;;3.67;;
49029;SDS011;43337;52.070;4.508;2023-02-04T13:03:39;23.63;;;3.13;;
49029;SDS011;43337;52.070;4.508;2023-02-04T13:06:04;19.10;;;3.00;;
49029;SDS011;43337;52.070;4.508;2023-02-04T13:08:30;14.68;;;2.70;;
49029;SDS011;43337;52.070;4.508;2023-02-04T13:10:55;19.95;;;3.15;;
49029;SDS011;43337;52.070;4.508;2023-02-04T13:13:22;20.48;;;3.00;;
49029;SDS011;43337;52.070;4.508;2023-02-04T13:15:47;21.90;;;4.03;;
49029;SDS011;43337;52.070;4.508;2023-02-04T13:18:13;18.10;;;3.25;;
49029;SDS011;43337;52.070;4.508;2023-02-04T13:20:39;18.55;;;2.97;;
49029;SDS011;43337;52.070;4.508;2023-02-04T13:23:04;17.13;;;4.63;;
49029;SDS011;43337;52.070;4.508;2023-02-04T13:25:30;25.23;;;4.75;;
49029;SDS011;43337;52.070;4.508;2023-02-04T13:27:55;15.63;;;4.00;;
49029;SDS011;43337;52.070;4.508;2023-02-04T13:30:20;24.90;;;6.10;;
49029;SDS011;43337;52.070;4.508;2023-02-04T13:32:46;25.08;;;6.03;;
49029;SDS011;43337;52.070;4.508;2023-02-04T13:35:11;25.55;;;7.18;;
49029;SDS011;43337;52.070;4.508;2023-02-04T13:37:37;22.02;;;7.10;;
49029;SDS011;43337;52.070;4.508;2023-02-04T13:40:04;24.95;;;6.85;;
49029;SDS011;43337;52.070;4.508;2023-02-04T13:42:31;17.65;;;4.97;;
49029;SDS011;43337;52.070;4.508;2023-02-04T13:44:57;20.80;;;5.55;;
49029;SDS011;43337;52.070;4.508;2023-02-04T13:47:22;23.92;;;6.22;;
49029;SDS011;43337;52.070;4.508;2023-02-04T13:49:47;24.88;;;6.18;;
49029;SDS011;43337;52.070;4.508;2023-02-04T13:52:13;29.80;;;7.15;;
49029;SDS011;43337;52.070;4.508;2023-02-04T13:54:38;23.13;;;7.55;;
49029;SDS011;43337;52.070;4.508;2023-02-04T13:57:04;26.95;;;7.60;;
49029;SDS011;43337;52.070;4.508;2023-02-04T13:59:29;23.60;;;6.90;;
49029;SDS011;43337;52.070;4.508;2023-02-04T14:01:55;24.23;;;7.50;;
49029;SDS011;43337;52.070;4.508;2023-02-04T14:04:20;27.42;;;6.90;;
49029;SDS011;43337;52.070;4.508;2023-02-04T14:06:45;25.50;;;6.57;;
49029;SDS011;43337;52.070;4.508;2023-02-04T14:09:11;20.55;;;6.13;;
49029;SDS011;43337;52.070;4.508;2023-02-04T14:11:37;23.15;;;5.88;;
49029;SDS011;43337;52.070;4.508;2023-02-04T14:14:03;22.27;;;7.47;;
49029;SDS011;43337;52.070;4.508;2023-02-04T14:16:28;29.95;;;5.20;;
49029;SDS011;43337;52.070;4.508;2023-02-04T14:18:54;28.67;;;6.30;;
49029;SDS011;43337;52.070;4.508;2023-02-04T14:21:19;23.83;;;5.45;;
49029;SDS011;43337;52.070;4.508;2023-02-04T14:23:44;24.80;;;5.82;;
49029;SDS011;43337;52.070;4.508;2023-02-04T14:26:10;32.47;;;7.03;;
49029;SDS011;43337;52.070;4.508;2023-02-04T14:28:35;21.40;;;5.80;;
49029;SDS011;43337;52.070;4.508;2023-02-04T14:31:01;23.42;;;5.38;;
49029;SDS011;43337;52.070;4.508;2023-02-04T14:33:26;27.10;;;6.50;;
49029;SDS011;43337;52.070;4.508;2023-02-04T14:35:51;19.48;;;6.68;;
49029;SDS011;43337;52.070;4.508;2023-02-04T14:38:17;26.35;;;6.32;;
49029;SDS011;43337;52.070;4.508;2023-02-04T14:40:42;29.67;;;6.00;;
49029;SDS011;43337;52.070;4.508;2023-02-04T14:43:08;23.17;;;6.88;;
49029;SDS011;43337;52.070;4.508;2023-02-04T14:45:37;21.70;;;7.18;;
49029;SDS011;43337;52.070;4.508;2023-02-04T14:48:04;32.60;;;8.13;;
49029;SDS011;43337;52.070;4.508;2023-02-04T14:50:29;28.67;;;6.90;;
49029;SDS011;43337;52.070;4.508;2023-02-04T14:52:55;18.90;;;6.40;;
49029;SDS011;43337;52.070;4.508;2023-02-04T14:55:24;23.88;;;7.75;;